Time;durP1;ratioP1;P1;durP2;ratioP2;P2;SDS_P1;SDS_P2;PMS_P1;PMS_P2;Temp;Humidity;BMP_temperature;BMP_pressure;BME280_temperature;BME280_humidity;BME280_pressure;Samples;Min_cycle;Max_cycle;Signal;HPM_P1;HPM_P2
2024/04/06 00:00:45;;;;;;;;;;;18.10;67.20;;;;;;5045124;28;1902;-72
2024/04/06 00:03:11;;;;;;;;;;;18.10;67.10;;;;;;5043869;28;1280;-72
2024/04/06 00:05:36;;;;;;;;;;;18.10;67.10;;;;;;5040818;28;1233;-72
2024/04/06 00:08:02;;;;;;;;;;;18.10;67.10;;;;;;5071876;28;1331;-72
2024/04/06 00:10:27;;;;;;;;;;;18.10;67.10;;;;;;5042825;28;1642;-72
2024/04/06 00:12:53;;;;;;;;;;;18.10;67.10;;;;;;5040843;28;1451;-72
2024/04/06 00:15:18;;;;;;;;;;;18.10;67.20;;;;;;5042633;28;1338;-72
2024/04/06 00:17:43;;;;;;;;;;;18.10;67.10;;;;;;5039706;28;1410;-72
2024/04/06 00:20:09;;;;;;;;;;;18.10;67.20;;;;;;5040648;28;1973;-72
2024/04/06 00:22:34;;;;;;;;;;;18.10;67.20;;;;;;5044040;28;1288;-71
2024/04/06 00:25:00;;;;;;;;;;;18.10;67.20;;;;;;5057890;28;1431;-70
2024/04/06 00:27:25;;;;;;;;;;;18.10;67.20;;;;;;5071495;28;1377;-70
2024/04/06 00:29:51;;;;;;;;;;;18.10;67.20;;;;;;5042533;28;1421;-71
2024/04/06 00:32:16;;;;;;;;;;;18.10;67.20;;;;;;5041753;28;1186;-70
2024/04/06 00:34:42;;;;;;;;;;;18.10;67.20;;;;;;5039733;28;1460;-70
2024/04/06 00:37:08;;;;;;;;;;;18.10;67.20;;;;;;5042733;28;1651;-71
2024/04/06 00:39:33;;;;;;;;;;;18.10;67.20;;;;;;5041591;28;1902;-70
2024/04/06 00:41:59;;;;;;;;;;;18.10;67.20;;;;;;5042014;28;1783;-69
2024/04/06 00:44:24;;;;;;;;;;;18.10;67.20;;;;;;5038241;28;1282;-70
2024/04/06 00:46:51;;;;;;;;;;;18.10;67.30;;;;;;5071711;28;1397;-70
2024/04/06 00:49:17;;;;;;;;;;;18.10;67.30;;;;;;5037897;28;1328;-72
2024/04/06 00:51:43;;;;;;;;;;;18.10;67.30;;;;;;5072992;28;1389;-72
2024/04/06 00:54:08;;;;;;;;;;;18.10;67.30;;;;;;5038024;28;1264;-72
2024/04/06 00:56:34;;;;;;;;;;;18.10;67.30;;;;;;5048228;28;1292;-71
2024/04/06 00:58:59;;;;;;;;;;;18.10;67.30;;;;;;5056425;28;1942;-69
2024/04/06 01:01:24;;;;;;;;;;;18.10;67.30;;;;;;5037669;28;1412;-70
2024/04/06 01:03:50;;;;;;;;;;;18.00;67.20;;;;;;5071462;28;1739;-70
2024/04/06 01:06:15;;;;;;;;;;;18.10;67.30;;;;;;5041173;28;1386;-70
2024/04/06 01:08:42;;;;;;;;;;;18.00;67.20;;;;;;5054357;28;1310;-71
2024/04/06 01:11:07;;;;;;;;;;;18.00;67.20;;;;;;5071595;28;1645;-72
2024/04/06 01:13:33;;;;;;;;;;;18.10;67.30;;;;;;5041251;28;1446;-71
2024/04/06 01:15:58;;;;;;;;;;;18.00;67.30;;;;;;5042577;28;1342;-71
2024/04/06 01:18:24;;;;;;;;;;;18.00;67.30;;;;;;5031220;28;1311;-71
2024/04/06 01:20:49;;;;;;;;;;;18.00;67.30;;;;;;5037274;28;1906;-71
2024/04/06 01:23:15;;;;;;;;;;;18.00;67.30;;;;;;5069333;28;1891;-70
2024/04/06 01:25:40;;;;;;;;;;;18.00;67.30;;;;;;5076009;28;1464;-71
2024/04/06 01:28:06;;;;;;;;;;;18.00;67.30;;;;;;5043185;28;1674;-71
2024/04/06 01:30:31;;;;;;;;;;;18.00;67.30;;;;;;5039895;28;888;-73
2024/04/06 01:32:57;;;;;;;;;;;18.10;67.40;;;;;;5046832;28;1201;-72
2024/04/06 01:35:22;;;;;;;;;;;18.00;67.30;;;;;;5040692;28;1191;-72
2024/04/06 01:37:48;;;;;;;;;;;18.10;67.40;;;;;;5037414;28;1681;-71
2024/04/06 01:40:13;;;;;;;;;;;18.00;67.30;;;;;;5040442;28;1897;-71
2024/04/06 01:42:39;;;;;;;;;;;18.10;67.40;;;;;;5037944;28;1544;-71
2024/04/06 01:45:05;;;;;;;;;;;18.00;67.30;;;;;;5047717;28;1551;-71
2024/04/06 01:47:30;;;;;;;;;;;18.00;67.30;;;;;;5038986;28;1323;-72
2024/04/06 01:49:56;;;;;;;;;;;18.00;67.30;;;;;;5040177;28;1163;-72
2024/04/06 01:52:21;;;;;;;;;;;18.00;67.40;;;;;;5053724;28;1485;-72
2024/04/06 01:54:47;;;;;;;;;;;18.00;67.30;;;;;;5038398;28;1595;-72
2024/04/06 01:57:12;;;;;;;;;;;18.00;67.40;;;;;;5040571;28;1371;-72
2024/04/06 01:59:40;;;;;;;;;;;18.00;67.40;;;;;;5039692;28;1963;-72
2024/04/06 02:02:06;;;;;;;;;;;18.00;67.40;;;;;;5042537;28;1340;-72
2024/04/06 02:04:31;;;;;;;;;;;18.00;67.40;;;;;;5070696;28;1261;-71
2024/04/06 02:06:57;;;;;;;;;;;18.00;67.40;;;;;;5038986;28;1566;-73
2024/04/06 02:09:22;;;;;;;;;;;18.00;67.40;;;;;;5042117;28;1156;-72
2024/04/06 02:11:48;;;;;;;;;;;18.00;67.40;;;;;;5040991;28;1451;-72
2024/04/06 02:14:13;;;;;;;;;;;18.00;67.40;;;;;;5041910;28;1359;-72
2024/04/06 02:16:39;;;;;;;;;;;18.00;67.40;;;;;;5039322;28;1530;-74
2024/04/06 02:19:04;;;;;;;;;;;18.00;67.40;;;;;;5040548;28;1910;-73
2024/04/06 02:21:30;;;;;;;;;;;18.00;68.10;;;;;;5038368;28;1429;-69
2024/04/06 02:23:55;;;;;;;;;;;18.00;67.40;;;;;;5041515;28;1472;-70
2024/04/06 02:26:21;;;;;;;;;;;18.00;67.40;;;;;;5038614;28;1292;-72
2024/04/06 02:28:46;;;;;;;;;;;18.00;67.40;;;;;;5042072;28;1437;-72
2024/04/06 02:31:11;;;;;;;;;;;18.00;67.40;;;;;;5039821;28;1299;-72
2024/04/06 02:33:37;;;;;;;;;;;18.00;67.40;;;;;;5036959;28;1371;-72
2024/04/06 02:36:04;;;;;;;;;;;18.00;67.40;;;;;;5038743;28;1402;-72
2024/04/06 02:38:30;;;;;;;;;;;18.00;67.40;;;;;;5037927;28;1455;-72
2024/04/06 02:40:55;;;;;;;;;;;18.00;67.40;;;;;;5042052;28;1902;-72
2024/04/06 02:43:21;;;;;;;;;;;18.00;67.40;;;;;;5038969;28;1322;-72
2024/04/06 02:45:47;;;;;;;;;;;18.00;67.40;;;;;;5041446;28;1357;-72
2024/04/06 02:48:12;;;;;;;;;;;18.00;67.40;;;;;;5037091;28;1196;-72
2024/04/06 02:50:38;;;;;;;;;;;18.00;67.40;;;;;;5035517;28;1395;-72
2024/04/06 02:53:04;;;;;;;;;;;18.00;67.40;;;;;;5037566;28;1184;-72
2024/04/06 02:55:29;;;;;;;;;;;18.00;67.40;;;;;;5037082;28;930;-72
2024/04/06 02:57:55;;;;;;;;;;;18.00;67.40;;;;;;5039531;28;1480;-72
2024/04/06 03:00:20;;;;;;;;;;;18.00;67.40;;;;;;5042047;28;1902;-72
2024/04/06 03:02:46;;;;;;;;;;;18.00;67.40;;;;;;5055904;28;1450;-72
2024/04/06 03:05:11;;;;;;;;;;;18.00;67.40;;;;;;5039416;28;1346;-72
2024/04/06 03:07:37;;;;;;;;;;;18.00;67.40;;;;;;5044577;28;1503;-72
2024/04/06 03:10:04;;;;;;;;;;;18.00;67.40;;;;;;5042122;28;1460;-72
2024/04/06 03:12:30;;;;;;;;;;;18.00;67.40;;;;;;5041438;28;1249;-72
2024/04/06 03:14:55;;;;;;;;;;;18.00;67.40;;;;;;5047288;28;1534;-73
2024/04/06 03:17:20;;;;;;;;;;;18.00;67.40;;;;;;5074653;28;1632;-72
2024/04/06 03:19:46;;;;;;;;;;;18.00;67.40;;;;;;5043616;28;1906;-72
2024/04/06 03:22:12;;;;;;;;;;;18.00;67.40;;;;;;5044821;28;1412;-72
2024/04/06 03:24:38;;;;;;;;;;;18.00;67.40;;;;;;5041128;28;1615;-72
2024/04/06 03:27:04;;;;;;;;;;;18.00;67.40;;;;;;5046027;28;1395;-72
2024/04/06 03:29:30;;;;;;;;;;;18.00;67.40;;;;;;5041275;28;1230;-73
2024/04/06 03:31:55;;;;;;;;;;;18.00;67.40;;;;;;5041850;28;1623;-72
2024/04/06 03:34:21;;;;;;;;;;;18.00;67.40;;;;;;5040267;28;1502;-73
2024/04/06 03:36:46;;;;;;;;;;;18.00;67.40;;;;;;5041668;28;1290;-72
2024/04/06 03:39:12;;;;;;;;;;;18.00;67.40;;;;;;5041195;28;1910;-72
2024/04/06 03:41:37;;;;;;;;;;;18.00;67.40;;;;;;5071130;28;1751;-74
2024/04/06 03:44:03;;;;;;;;;;;18.00;67.40;;;;;;5041297;28;1567;-73
2024/04/06 03:46:29;;;;;;;;;;;18.00;67.50;;;;;;5041239;28;1290;-72
2024/04/06 03:48:54;;;;;;;;;;;18.00;67.40;;;;;;5041581;28;1407;-73
2024/04/06 03:51:20;;;;;;;;;;;18.00;67.50;;;;;;5039267;28;1335;-73
2024/04/06 03:53:45;;;;;;;;;;;18.00;67.50;;;;;;5040387;28;952;-73
2024/04/06 03:56:11;;;;;;;;;;;18.00;67.40;;;;;;5045900;28;1295;-72
2024/04/06 03:58:36;;;;;;;;;;;18.00;67.40;;;;;;5043338;28;1717;-73
2024/04/06 04:01:02;;;;;;;;;;;18.00;67.50;;;;;;5041701;28;1951;-72
2024/04/06 04:03:27;;;;;;;;;;;18.00;67.50;;;;;;5040187;28;1292;-72
2024/04/06 04:05:53;;;;;;;;;;;18.00;67.50;;;;;;5040352;28;1378;-72
2024/04/06 04:08:18;;;;;;;;;;;18.00;67.50;;;;;;5039971;28;1126;-72
2024/04/06 04:10:43;;;;;;;;;;;18.00;67.50;;;;;;5040176;28;1401;-72
2024/04/06 04:13:12;;;;;;;;;;;18.00;67.40;;;;;;5043407;28;1304;-72
2024/04/06 04:15:41;;;;;;;;;;;18.00;67.40;;;;;;5041871;28;1212;-73
2024/04/06 04:18:07;;;;;;;;;;;18.00;67.40;;;;;;5042511;28;1167;-72
2024/04/06 04:20:32;;;;;;;;;;;18.00;67.30;;;;;;5037792;28;1975;-73
2024/04/06 04:22:58;;;;;;;;;;;18.10;67.30;;;;;;5072107;28;1572;-70
2024/04/06 04:25:23;;;;;;;;;;;18.10;67.10;;;;;;5041482;28;2038;-71
2024/04/06 04:27:49;;;;;;;;;;;18.10;67.10;;;;;;5038828;28;1372;-73
2024/04/06 04:30:15;;;;;;;;;;;18.20;67.10;;;;;;5025320;28;1813;-72
2024/04/06 04:32:41;;;;;;;;;;;18.20;67.00;;;;;;5041727;28;1332;-72
2024/04/06 04:35:07;;;;;;;;;;;18.20;66.80;;;;;;5043161;28;1314;-72
2024/04/06 04:37:32;;;;;;;;;;;18.20;66.70;;;;;;5038355;28;1277;-71
2024/04/06 04:39:58;;;;;;;;;;;18.20;66.70;;;;;;5068848;28;1898;-71
2024/04/06 04:42:23;;;;;;;;;;;18.30;66.60;;;;;;5039027;28;1477;-71
2024/04/06 04:44:49;;;;;;;;;;;18.30;66.50;;;;;;5069999;28;1227;-72
2024/04/06 04:47:14;;;;;;;;;;;18.30;66.50;;;;;;5038526;28;1396;-72
2024/04/06 04:49:40;;;;;;;;;;;18.30;66.40;;;;;;5072230;28;1604;-71
2024/04/06 04:52:05;;;;;;;;;;;18.30;66.40;;;;;;5055206;28;1353;-72
2024/04/06 04:54:31;;;;;;;;;;;18.30;66.30;;;;;;5048776;28;1420;-72
2024/04/06 04:56:56;;;;;;;;;;;18.40;66.30;;;;;;5040210;28;1558;-71
2024/04/06 04:59:22;;;;;;;;;;;18.40;66.20;;;;;;5042622;28;1898;-72
2024/04/06 05:01:47;;;;;;;;;;;18.40;66.20;;;;;;5038426;28;1663;-72
2024/04/06 05:04:13;;;;;;;;;;;18.40;66.20;;;;;;5057545;28;1607;-72
2024/04/06 05:06:38;;;;;;;;;;;18.40;66.10;;;;;;5038191;28;1405;-73
2024/04/06 05:09:06;;;;;;;;;;;18.40;66.00;;;;;;5038242;28;1339;-70
2024/04/06 05:11:32;;;;;;;;;;;18.40;66.00;;;;;;5043156;28;1472;-73
2024/04/06 05:13:58;;;;;;;;;;;18.40;66.00;;;;;;5035996;28;1429;-72
2024/04/06 05:16:24;;;;;;;;;;;18.50;66.00;;;;;;5038968;28;1482;-72
2024/04/06 05:18:49;;;;;;;;;;;18.40;65.90;;;;;;5041465;28;1566;-72
2024/04/06 05:21:15;;;;;;;;;;;18.50;65.90;;;;;;5039693;28;1957;-72
2024/04/06 05:23:40;;;;;;;;;;;18.50;65.80;;;;;;5040990;28;1252;-71
2024/04/06 05:26:06;;;;;;;;;;;18.50;65.90;;;;;;5075238;28;1601;-71
2024/04/06 05:28:31;;;;;;;;;;;18.50;65.80;;;;;;5037837;28;1775;-71
2024/04/06 05:30:57;;;;;;;;;;;18.50;65.80;;;;;;5040123;28;1522;-71
2024/04/06 05:33:22;;;;;;;;;;;18.50;65.70;;;;;;5071397;28;1044;-72
2024/04/06 05:35:48;;;;;;;;;;;18.50;65.70;;;;;;5039644;28;1343;-72
2024/04/06 05:38:17;;;;;;;;;;;18.50;65.70;;;;;;5064641;28;2053;-72
2024/04/06 05:40:43;;;;;;;;;;;18.50;65.70;;;;;;5046263;28;1959;-72
2024/04/06 05:43:09;;;;;;;;;;;18.50;65.70;;;;;;5038689;28;1572;-73
2024/04/06 05:45:37;;;;;;;;;;;18.50;65.70;;;;;;5038457;28;1356;-73
2024/04/06 05:48:03;;;;;;;;;;;18.50;65.70;;;;;;5047861;28;1706;-73
2024/04/06 05:50:32;;;;;;;;;;;18.50;65.70;;;;;;5057313;28;1326;-73
2024/04/06 05:52:58;;;;;;;;;;;18.50;65.70;;;;;;5070136;28;1328;-73
2024/04/06 05:55:23;;;;;;;;;;;18.50;65.60;;;;;;5042451;28;1363;-74
2024/04/06 05:57:49;;;;;;;;;;;18.50;65.60;;;;;;5038628;28;1706;-73
2024/04/06 06:00:15;;;;;;;;;;;18.50;65.70;;;;;;5073657;28;1901;-73
2024/04/06 06:02:41;;;;;;;;;;;18.50;65.60;;;;;;5038544;28;1626;-72
2024/04/06 06:05:06;;;;;;;;;;;18.50;65.60;;;;;;5071984;28;1476;-73
2024/04/06 06:07:32;;;;;;;;;;;18.50;65.60;;;;;;5037045;28;1536;-72
2024/04/06 06:09:57;;;;;;;;;;;18.50;65.60;;;;;;5040315;28;1615;-73
2024/04/06 06:12:24;;;;;;;;;;;18.50;65.60;;;;;;5042827;28;1367;-72
2024/04/06 06:14:52;;;;;;;;;;;18.50;65.60;;;;;;5041150;28;1450;-69
2024/04/06 06:17:19;;;;;;;;;;;18.50;65.60;;;;;;5038272;28;1689;-70
2024/04/06 06:19:44;;;;;;;;;;;18.50;65.70;;;;;;5046819;28;1930;-70
2024/04/06 06:22:10;;;;;;;;;;;18.50;65.70;;;;;;5038252;28;1398;-71
2024/04/06 06:24:35;;;;;;;;;;;18.50;65.70;;;;;;5069466;28;1198;-71
2024/04/06 06:27:01;;;;;;;;;;;18.50;65.70;;;;;;5038176;28;1517;-71
2024/04/06 06:29:26;;;;;;;;;;;18.50;65.70;;;;;;5037778;28;1325;-71
2024/04/06 06:31:52;;;;;;;;;;;18.50;65.70;;;;;;5038527;28;962;-72
2024/04/06 06:34:19;;;;;;;;;;;18.50;65.70;;;;;;5039968;28;1504;-71
2024/04/06 06:36:45;;;;;;;;;;;18.50;65.70;;;;;;5045715;28;1566;-71
2024/04/06 06:39:11;;;;;;;;;;;18.50;65.80;;;;;;5022733;28;1878;-70
2024/04/06 06:41:36;;;;;;;;;;;18.50;65.80;;;;;;5069884;28;1461;-72
2024/04/06 06:44:02;;;;;;;;;;;18.50;65.80;;;;;;5037787;28;1347;-73
2024/04/06 06:46:27;;;;;;;;;;;18.50;65.90;;;;;;5067904;28;1288;-72
2024/04/06 06:48:52;;;;;;;;;;;18.50;65.90;;;;;;5039256;28;1030;-72
2024/04/06 06:51:18;;;;;;;;;;;18.50;65.90;;;;;;5069940;28;1411;-72
2024/04/06 06:53:43;;;;;;;;;;;18.50;65.90;;;;;;5037716;28;906;-73
2024/04/06 06:56:09;;;;;;;;;;;18.50;65.90;;;;;;5057759;28;1294;-72
2024/04/06 06:58:34;;;;;;;;;;;18.50;66.00;;;;;;5039933;28;999;-73
2024/04/06 07:01:00;;;;;;;;;;;18.50;66.30;;;;;;5036730;28;1891;-72
2024/04/06 07:03:25;;;;;;;;;;;18.50;66.30;;;;;;5068964;28;1286;-72
2024/04/06 07:05:51;;;;;;;;;;;18.40;66.20;;;;;;5069979;28;1292;-71
2024/04/06 07:08:16;;;;;;;;;;;18.50;66.30;;;;;;5023854;28;1407;-72
2024/04/06 07:10:43;;;;;;;;;;;18.50;66.30;;;;;;5046343;28;1294;-72
2024/04/06 07:13:08;;;;;;;;;;;18.50;66.20;;;;;;5038181;28;963;-72
2024/04/06 07:15:33;;;;;;;;;;;18.40;66.10;;;;;;5069443;28;1461;-73
2024/04/06 07:17:59;;;;;;;;;;;18.50;66.20;;;;;;5037397;28;1388;-72
2024/04/06 07:20:24;;;;;;;;;;;18.40;66.20;;;;;;5038067;28;1902;-72
2024/04/06 07:22:50;;;;;;;;;;;18.40;66.20;;;;;;5035483;28;1169;-72
2024/04/06 07:25:16;;;;;;;;;;;18.40;66.20;;;;;;5038193;28;1418;-72
2024/04/06 07:27:41;;;;;;;;;;;18.40;66.30;;;;;;5037481;28;1349;-72
2024/04/06 07:30:07;;;;;;;;;;;18.40;66.20;;;;;;5071967;28;1717;-72
2024/04/06 07:32:32;;;;;;;;;;;18.40;66.30;;;;;;5038983;28;1579;-72
2024/04/06 07:34:58;;;;;;;;;;;18.40;66.30;;;;;;5044897;28;1638;-72
2024/04/06 07:37:23;;;;;;;;;;;18.40;66.30;;;;;;5034025;28;1620;-72
2024/04/06 07:39:49;;;;;;;;;;;18.40;66.40;;;;;;5037811;28;1899;-72
2024/04/06 07:42:14;;;;;;;;;;;18.40;66.40;;;;;;5067758;28;1554;-72
2024/04/06 07:44:40;;;;;;;;;;;18.40;66.40;;;;;;5036399;28;1679;-72
2024/04/06 07:47:06;;;;;;;;;;;18.40;66.40;;;;;;5067349;28;1394;-73
2024/04/06 07:49:31;;;;;;;;;;;18.40;66.40;;;;;;5036026;28;1616;-73
2024/04/06 07:51:56;;;;;;;;;;;18.40;66.40;;;;;;5038717;28;1662;-72
2024/04/06 07:54:22;;;;;;;;;;;18.30;66.40;;;;;;5043014;28;1783;-72
2024/04/06 07:56:47;;;;;;;;;;;18.40;66.50;;;;;;5040771;28;1468;-72
2024/04/06 07:59:13;;;;;;;;;;;18.40;66.50;;;;;;5042957;28;1902;-72
2024/04/06 08:01:38;;;;;;;;;;;18.40;66.50;;;;;;5040075;28;1220;-72
2024/04/06 08:04:04;;;;;;;;;;;18.40;66.50;;;;;;5041579;28;1454;-72
2024/04/06 08:06:29;;;;;;;;;;;18.40;66.60;;;;;;5042461;28;1514;-72
2024/04/06 08:08:55;;;;;;;;;;;18.40;66.60;;;;;;5058828;28;1611;-73
2024/04/06 08:11:21;;;;;;;;;;;18.40;66.60;;;;;;5039689;28;1575;-72
2024/04/06 08:13:47;;;;;;;;;;;18.40;66.60;;;;;;5043864;28;1665;-72
2024/04/06 08:16:12;;;;;;;;;;;18.30;66.50;;;;;;5042455;28;1648;-73
2024/04/06 08:18:38;;;;;;;;;;;18.30;66.60;;;;;;5041321;28;1247;-73
2024/04/06 08:21:04;;;;;;;;;;;18.40;66.70;;;;;;5039194;28;1918;-73
2024/04/06 08:23:29;;;;;;;;;;;18.30;66.60;;;;;;5040755;28;1444;-73
2024/04/06 08:25:55;;;;;;;;;;;18.30;66.60;;;;;;5069708;28;1461;-72
2024/04/06 08:28:20;;;;;;;;;;;18.30;66.60;;;;;;5051868;28;1198;-72
2024/04/06 08:30:46;;;;;;;;;;;18.30;66.60;;;;;;5037228;28;1535;-72
2024/04/06 08:33:11;;;;;;;;;;;18.30;66.60;;;;;;5040595;28;1409;-72
2024/04/06 08:35:37;;;;;;;;;;;18.30;66.70;;;;;;5049043;28;1688;-72
2024/04/06 08:38:06;;;;;;;;;;;18.30;67.50;;;;;;5038195;28;1270;-72
2024/04/06 08:40:31;;;;;;;;;;;18.30;66.70;;;;;;5039603;28;1898;-72
2024/04/06 08:43:02;;;;;;;;;;;18.30;66.70;;;;;;5058877;28;1539;-72
2024/04/06 08:45:27;;;;;;;;;;;18.30;66.70;;;;;;5041642;28;1482;-72
2024/04/06 08:47:53;;;;;;;;;;;18.30;66.80;;;;;;5039380;28;1348;-72
2024/04/06 08:50:18;;;;;;;;;;;18.30;66.70;;;;;;5057030;28;1063;-72
2024/04/06 08:52:44;;;;;;;;;;;18.30;66.70;;;;;;5071029;28;1327;-73
2024/04/06 08:55:09;;;;;;;;;;;18.30;66.70;;;;;;5039400;28;1583;-72
2024/04/06 08:57:39;;;;;;;;;;;18.30;66.80;;;;;;5043022;28;1482;-73
2024/04/06 09:00:11;;;;;;;;;;;18.30;66.80;;;;;;5038174;28;1902;-72
2024/04/06 09:02:37;;;;;;;;;;;18.30;66.80;;;;;;5055200;28;1303;-73
2024/04/06 09:05:05;;;;;;;;;;;18.30;66.80;;;;;;5041538;28;1526;-71
2024/04/06 09:07:30;;;;;;;;;;;18.30;66.80;;;;;;5037993;28;1618;-70
2024/04/06 09:09:56;;;;;;;;;;;18.30;66.80;;;;;;5039042;28;1581;-72
2024/04/06 09:12:21;;;;;;;;;;;18.30;66.80;;;;;;5043249;28;1897;-72
2024/04/06 09:14:47;;;;;;;;;;;18.30;66.80;;;;;;5056402;28;1484;-72
2024/04/06 09:17:14;;;;;;;;;;;18.20;66.80;;;;;;5069545;28;1296;-72
2024/04/06 09:19:40;;;;;;;;;;;18.30;66.90;;;;;;5040825;28;1902;-73
2024/04/06 09:22:05;;;;;;;;;;;18.30;66.80;;;;;;5041694;28;1378;-72
2024/04/06 09:24:31;;;;;;;;;;;18.20;66.80;;;;;;5037653;28;1342;-73
2024/04/06 09:27:03;;;;;;;;;;;18.20;66.80;;;;;;5037695;28;1375;-73
2024/04/06 09:29:29;;;;;;;;;;;18.20;66.90;;;;;;5047615;28;1273;-73
2024/04/06 09:31:54;;;;;;;;;;;18.20;66.90;;;;;;5071713;28;1596;-73
2024/04/06 09:34:20;;;;;;;;;;;18.20;66.90;;;;;;5040454;28;1134;-73
2024/04/06 09:36:45;;;;;;;;;;;18.20;66.90;;;;;;5038363;28;1269;-72
2024/04/06 09:39:10;;;;;;;;;;;18.20;66.90;;;;;;5038817;28;939;-73
2024/04/06 09:41:36;;;;;;;;;;;18.20;66.90;;;;;;5039449;28;1169;-73
2024/04/06 09:44:01;;;;;;;;;;;18.20;66.90;;;;;;5070416;28;950;-72
2024/04/06 09:46:27;;;;;;;;;;;18.20;66.90;;;;;;5037965;28;1647;-73
2024/04/06 09:48:54;;;;;;;;;;;18.20;67.00;;;;;;5039065;28;1124;-73
2024/04/06 09:51:19;;;;;;;;;;;18.30;67.00;;;;;;5046424;28;1089;-72
2024/04/06 09:53:45;;;;;;;;;;;18.20;66.90;;;;;;5038848;28;1438;-72
2024/04/06 09:56:11;;;;;;;;;;;18.30;67.00;;;;;;5038164;28;1517;-72
2024/04/06 09:58:37;;;;;;;;;;;18.40;67.30;;;;;;5039707;28;1425;-72
2024/04/06 10:01:11;;;;;;;;;;;18.40;67.50;;;;;;5056371;28;1901;-72
2024/04/06 10:03:37;;;;;;;;;;;18.50;68.30;;;;;;5026819;28;1496;-73
2024/04/06 10:06:09;;;;;;;;;;;18.50;70.10;;;;;;5071564;28;1697;-72
2024/04/06 10:08:44;;;;;;;;;;;18.50;69.00;;;;;;5036489;28;1538;-72
2024/04/06 10:11:11;;;;;;;;;;;18.50;68.70;;;;;;5040285;28;1501;-71
2024/04/06 10:13:36;;;;;;;;;;;18.60;68.90;;;;;;5046030;28;1575;-71
2024/04/06 10:16:06;;;;;;;;;;;18.60;68.90;;;;;;5040862;28;1412;-71
2024/04/06 10:18:31;;;;;;;;;;;18.60;68.80;;;;;;5037067;28;1429;-71
2024/04/06 10:20:57;;;;;;;;;;;18.70;69.10;;;;;;5037701;28;1902;-71
2024/04/06 10:23:22;;;;;;;;;;;18.70;68.80;;;;;;5037120;28;1749;-71
2024/04/06 10:25:48;;;;;;;;;;;18.70;68.50;;;;;;5048813;28;1673;-71
2024/04/06 10:28:14;;;;;;;;;;;18.70;68.10;;;;;;5039719;28;1348;-71
2024/04/06 10:30:39;;;;;;;;;;;18.80;67.90;;;;;;5034781;28;1410;-71
2024/04/06 10:33:08;;;;;;;;;;;18.80;67.80;;;;;;5041133;28;1489;-71
2024/04/06 10:35:33;;;;;;;;;;;18.80;67.80;;;;;;5040629;28;1790;-72
2024/04/06 10:37:59;;;;;;;;;;;18.80;67.80;;;;;;5027848;28;1279;-71
2024/04/06 10:40:28;;;;;;;;;;;18.80;67.70;;;;;;5039545;28;1898;-71
2024/04/06 10:42:56;;;;;;;;;;;18.90;68.10;;;;;;5054654;28;1502;-70
2024/04/06 10:45:22;;;;;;;;;;;18.90;68.00;;;;;;5039160;28;1913;-70
2024/04/06 10:47:47;;;;;;;;;;;18.90;67.60;;;;;;5070325;28;1693;-72
2024/04/06 10:50:13;;;;;;;;;;;18.90;67.20;;;;;;5037489;28;1434;-70
2024/04/06 10:52:39;;;;;;;;;;;18.90;67.70;;;;;;5038239;28;1417;-71
2024/04/06 10:55:10;;;;;;;;;;;18.90;67.10;;;;;;5037673;28;1488;-71
2024/04/06 10:57:36;;;;;;;;;;;18.90;67.10;;;;;;5039264;28;1563;-71
2024/04/06 11:00:03;;;;;;;;;;;19.00;68.20;;;;;;5039397;28;1965;-71
2024/04/06 11:58:02;;;;;;;;;;;19.20;66.00;;;;;;5039098;28;941;-66
2024/04/06 12:00:28;;;;;;;;;;;19.20;66.10;;;;;;5073083;28;1963;-69
2024/04/06 12:02:54;;;;;;;;;;;19.10;66.40;;;;;;5040508;28;2221;-70
2024/04/06 12:05:19;;;;;;;;;;;19.10;66.50;;;;;;5039399;28;1509;-69
2024/04/06 12:07:44;;;;;;;;;;;19.10;66.40;;;;;;5039528;28;2174;-71
2024/04/06 12:10:10;;;;;;;;;;;19.10;66.50;;;;;;5060301;28;1657;-70
2024/04/06 12:12:35;;;;;;;;;;;19.10;66.60;;;;;;5040580;28;1851;-70
2024/04/06 12:15:01;;;;;;;;;;;19.10;66.70;;;;;;5042576;28;1064;-70
2024/04/06 12:17:29;;;;;;;;;;;19.10;66.80;;;;;;5038162;28;2181;-70
2024/04/06 12:19:55;;;;;;;;;;;19.10;66.80;;;;;;5042186;28;1887;-70
2024/04/06 12:22:21;;;;;;;;;;;19.10;66.70;;;;;;5051420;28;1004;-70
2024/04/06 12:24:46;;;;;;;;;;;19.10;66.40;;;;;;5040515;28;1561;-70
2024/04/06 12:27:17;;;;;;;;;;;19.10;66.20;;;;;;5042409;28;1534;-71
2024/04/06 12:29:45;;;;;;;;;;;19.10;66.40;;;;;;5040535;28;1472;-70
2024/04/06 12:32:11;;;;;;;;;;;19.10;66.50;;;;;;5040782;28;1535;-71
2024/04/06 12:34:37;;;;;;;;;;;19.10;66.60;;;;;;5029872;28;1252;-70
2024/04/06 12:37:06;;;;;;;;;;;19.10;65.70;;;;;;5040752;28;1449;-71
2024/04/06 12:39:31;;;;;;;;;;;19.10;65.70;;;;;;5038607;28;1973;-70
2024/04/06 12:41:57;;;;;;;;;;;19.10;65.90;;;;;;5071745;28;1518;-71
2024/04/06 12:44:22;;;;;;;;;;;19.10;66.10;;;;;;5040986;28;1447;-70
2024/04/06 12:46:48;;;;;;;;;;;19.10;66.30;;;;;;5048776;28;1371;-70
2024/04/06 12:49:13;;;;;;;;;;;19.10;66.10;;;;;;5042144;28;1343;-70
2024/04/06 12:51:38;;;;;;;;;;;19.10;66.10;;;;;;5040668;28;1467;-69
2024/04/06 12:54:04;;;;;;;;;;;19.10;66.00;;;;;;5040933;28;1399;-69
2024/04/06 12:56:32;;;;;;;;;;;19.10;66.10;;;;;;5042827;28;1465;-69
2024/04/06 12:58:58;;;;;;;;;;;19.10;66.20;;;;;;5041727;28;1429;-69
2024/04/06 13:01:23;;;;;;;;;;;19.10;66.40;;;;;;5042639;28;1973;-69
2024/04/06 13:03:49;;;;;;;;;;;19.10;66.60;;;;;;5039652;28;1345;-69
2024/04/06 13:06:15;;;;;;;;;;;19.10;66.30;;;;;;5040951;28;1493;-69
2024/04/06 13:08:40;;;;;;;;;;;19.10;66.20;;;;;;5042228;28;1303;-69
2024/04/06 13:11:06;;;;;;;;;;;19.10;66.50;;;;;;5072485;28;1277;-69
2024/04/06 13:13:31;;;;;;;;;;;19.10;66.50;;;;;;5041225;28;1458;-69
2024/04/06 13:15:56;;;;;;;;;;;19.10;66.70;;;;;;5052700;28;1502;-69
2024/04/06 13:18:22;;;;;;;;;;;19.10;66.50;;;;;;5041871;28;1455;-68
2024/04/06 13:20:50;;;;;;;;;;;19.20;65.20;;;;;;5040809;28;1971;-70
2024/04/06 13:23:17;;;;;;;;;;;19.20;65.30;;;;;;5039432;28;1342;-70
2024/04/06 13:25:43;;;;;;;;;;;19.20;65.30;;;;;;5042023;28;1489;-70
2024/04/06 13:28:08;;;;;;;;;;;19.20;65.60;;;;;;5041571;28;1439;-70
2024/04/06 13:30:34;;;;;;;;;;;19.10;65.90;;;;;;5041657;28;1248;-69
2024/04/06 13:32:59;;;;;;;;;;;19.20;65.90;;;;;;5040850;28;1328;-68
2024/04/06 13:35:25;;;;;;;;;;;19.20;65.80;;;;;;5039493;28;1776;-69
2024/04/06 13:37:51;;;;;;;;;;;19.10;65.60;;;;;;5043171;28;1378;-70
2024/04/06 13:40:17;;;;;;;;;;;19.20;65.90;;;;;;5042058;28;2029;-70
2024/04/06 13:42:42;;;;;;;;;;;19.20;65.80;;;;;;5040720;28;1485;-69
2024/04/06 13:45:12;;;;;;;;;;;19.20;66.10;;;;;;5042209;28;1343;-69
2024/04/06 13:47:38;;;;;;;;;;;19.30;64.90;;;;;;5070803;28;1315;-70
2024/04/06 13:50:03;;;;;;;;;;;19.30;64.70;;;;;;5036615;28;1695;-69
2024/04/06 13:52:29;;;;;;;;;;;19.30;64.00;;;;;;5038690;28;1242;-69
2024/04/06 13:54:54;;;;;;;;;;;19.30;64.10;;;;;;5038236;28;1413;-69
2024/04/06 13:57:20;;;;;;;;;;;19.40;63.80;;;;;;5040802;28;1386;-69
2024/04/06 13:59:45;;;;;;;;;;;19.40;63.60;;;;;;5038743;28;1977;-70
2024/04/06 14:02:10;;;;;;;;;;;19.40;63.80;;;;;;5042615;28;1523;-69
2024/04/06 14:04:36;;;;;;;;;;;19.40;63.50;;;;;;5038074;28;1531;-69
2024/04/06 14:07:01;;;;;;;;;;;19.40;63.30;;;;;;5037937;28;1596;-69
2024/04/06 14:09:27;;;;;;;;;;;19.40;63.50;;;;;;5039076;28;1265;-69
2024/04/06 14:11:53;;;;;;;;;;;19.40;63.80;;;;;;5038938;28;1547;-69
2024/04/06 14:14:21;;;;;;;;;;;19.40;64.30;;;;;;5039717;28;1429;-69
2024/04/06 14:16:47;;;;;;;;;;;19.40;64.70;;;;;;5047083;28;1454;-69
2024/04/06 14:19:15;;;;;;;;;;;19.30;64.90;;;;;;5040529;28;1463;-69
2024/04/06 14:21:40;;;;;;;;;;;19.30;64.80;;;;;;5046420;28;1902;-69
2024/04/06 14:24:06;;;;;;;;;;;19.30;64.20;;;;;;5043496;28;1454;-69
2024/04/06 14:26:32;;;;;;;;;;;19.30;63.70;;;;;;5039441;28;1458;-69
2024/04/06 14:28:57;;;;;;;;;;;19.40;63.60;;;;;;5038337;28;1520;-69
2024/04/06 14:31:24;;;;;;;;;;;19.40;63.60;;;;;;5035366;28;1597;-69
2024/04/06 14:33:50;;;;;;;;;;;19.40;63.90;;;;;;5068696;28;1536;-69
2024/04/06 14:36:15;;;;;;;;;;;19.40;63.40;;;;;;5038130;28;1448;-70
2024/04/06 14:38:40;;;;;;;;;;;19.40;63.10;;;;;;5037890;28;1688;-69
2024/04/06 14:41:06;;;;;;;;;;;19.40;63.20;;;;;;5039807;28;1930;-70
2024/04/06 14:43:33;;;;;;;;;;;19.40;63.40;;;;;;5038099;28;1483;-70
2024/04/06 14:45:59;;;;;;;;;;;19.40;63.70;;;;;;5038458;28;1308;-70
2024/04/06 14:48:25;;;;;;;;;;;19.40;63.70;;;;;;5040093;28;1939;-69
2024/04/06 14:50:50;;;;;;;;;;;19.40;63.10;;;;;;5041156;28;1106;-70
2024/04/06 14:53:16;;;;;;;;;;;19.40;63.10;;;;;;5071837;28;1447;-70
2024/04/06 14:55:41;;;;;;;;;;;19.40;62.20;;;;;;5072429;28;1452;-70
2024/04/06 14:58:07;;;;;;;;;;;19.50;61.50;;;;;;5057247;28;1530;-69
2024/04/06 15:00:32;;;;;;;;;;;19.40;61.90;;;;;;5039346;28;1902;-72
2024/04/06 15:02:57;;;;;;;;;;;19.40;62.80;;;;;;5043648;28;955;-71
2024/04/06 15:05:23;;;;;;;;;;;19.40;63.50;;;;;;5045341;28;1219;-72
2024/04/06 15:07:50;;;;;;;;;;;19.40;64.00;;;;;;5035094;28;1355;-72
2024/04/06 15:10:15;;;;;;;;;;;19.30;64.20;;;;;;5046904;28;1018;-72
2024/04/06 15:12:41;;;;;;;;;;;19.20;64.40;;;;;;5045949;28;1002;-71
2024/04/06 15:15:06;;;;;;;;;;;19.20;64.60;;;;;;5045804;28;938;-73
2024/04/06 15:17:32;;;;;;;;;;;19.10;64.80;;;;;;5048231;28;1238;-71